Time;durP1;ratioP1;P1;durP2;ratioP2;P2;SDS_P1;SDS_P2;PMS_P1;PMS_P2;Temp;Humidity;BMP_temperature;BMP_pressure;BME280_temperature;BME280_humidity;BME280_pressure;Samples;Min_cycle;Max_cycle;Signal;HPM_P1;HPM_P2
2024/04/05 00:00:13;;;;;;;14.82;3.88;;;;;;;;;;5054270;28;20013;-55
2024/04/05 00:02:41;;;;;;;16.02;3.97;;;;;;;;;;5054590;28;20025;-55
2024/04/05 00:05:09;;;;;;;13.65;3.97;;;;;;;;;;5054182;28;20021;-53
2024/04/05 00:07:37;;;;;;;13.27;3.55;;;;;;;;;;5054407;28;20021;-53
2024/04/05 00:10:03;;;;;;;13.23;3.67;;;;;;;;;;5054073;28;20331;-54
2024/04/05 00:12:29;;;;;;;12.32;3.10;;;;;;;;;;5054049;28;20063;-54
2024/04/05 00:14:56;;;;;;;16.55;3.65;;;;;;;;;;5054373;28;20013;-53
2024/04/05 00:17:21;;;;;;;14.50;3.60;;;;;;;;;;5054057;28;20029;-57
2024/04/05 00:19:46;;;;;;;16.25;3.72;;;;;;;;;;5054021;28;20035;-53
2024/04/05 00:22:13;;;;;;;11.52;3.20;;;;;;;;;;5054119;28;20104;-57
2024/04/05 00:24:39;;;;;;;14.82;3.58;;;;;;;;;;5054271;28;20517;-56
2024/04/05 00:27:04;;;;;;;15.63;3.65;;;;;;;;;;5054173;28;20009;-57
2024/04/05 00:29:31;;;;;;;17.48;4.03;;;;;;;;;;5054042;28;20460;-55
2024/04/05 00:31:57;;;;;;;13.60;3.15;;;;;;;;;;5053957;28;20411;-57
2024/04/05 00:34:23;;;;;;;18.08;3.45;;;;;;;;;;5053978;28;20043;-57
2024/04/05 00:36:50;;;;;;;14.57;3.78;;;;;;;;;;5054033;28;20075;-57
2024/04/05 00:39:16;;;;;;;12.52;3.60;;;;;;;;;;5054204;28;20017;-57
2024/04/05 00:41:42;;;;;;;13.63;3.40;;;;;;;;;;5054008;28;20100;-56
2024/04/05 00:44:09;;;;;;;14.52;3.60;;;;;;;;;;5053977;28;20028;-57
2024/04/05 00:46:36;;;;;;;18.52;3.42;;;;;;;;;;5053843;28;20028;-56
2024/04/05 00:49:03;;;;;;;14.35;3.50;;;;;;;;;;5054093;28;20433;-55
2024/04/05 00:51:30;;;;;;;16.67;3.80;;;;;;;;;;5053757;28;20108;-57
2024/04/05 00:53:57;;;;;;;14.07;3.65;;;;;;;;;;5053848;28;20017;-57
2024/04/05 00:56:24;;;;;;;15.27;3.58;;;;;;;;;;5053788;28;20027;-54
2024/04/05 00:58:50;;;;;;;14.52;3.58;;;;;;;;;;5054266;28;20017;-57
2024/04/05 01:01:16;;;;;;;20.55;4.53;;;;;;;;;;5053697;28;20443;-58
2024/04/05 01:03:42;;;;;;;12.20;3.97;;;;;;;;;;5053707;28;20017;-57
2024/04/05 01:06:08;;;;;;;11.90;3.50;;;;;;;;;;5053781;28;20021;-58
2024/04/05 01:08:34;;;;;;;17.00;3.47;;;;;;;;;;5055099;28;20021;-57
2024/04/05 01:11:01;;;;;;;13.85;3.42;;;;;;;;;;5057530;28;20059;-57
2024/04/05 01:13:27;;;;;;;14.23;3.63;;;;;;;;;;5057240;28;20063;-56
2024/04/05 01:15:53;;;;;;;16.80;4.00;;;;;;;;;;5057344;28;20109;-56
2024/04/05 01:18:19;;;;;;;19.23;3.58;;;;;;;;;;5039493;28;20032;-57
2024/04/05 01:20:47;;;;;;;16.70;3.85;;;;;;;;;;5057040;28;20029;-57
2024/04/05 01:23:16;;;;;;;15.93;3.88;;;;;;;;;;5057008;28;20025;-56
2024/04/05 01:25:43;;;;;;;14.32;3.58;;;;;;;;;;5056888;28;20017;-53
2024/04/05 01:28:13;;;;;;;13.57;3.53;;;;;;;;;;5057286;28;20017;-56
2024/04/05 01:30:40;;;;;;;16.03;4.10;;;;;;;;;;5056929;28;20115;-57
2024/04/05 01:33:06;;;;;;;18.00;3.40;;;;;;;;;;5056967;28;20020;-57
2024/04/05 01:35:32;;;;;;;15.82;4.03;;;;;;;;;;5056931;28;20108;-57
2024/04/05 01:37:59;;;;;;;15.85;3.83;;;;;;;;;;5057214;28;20020;-54
2024/04/05 01:40:26;;;;;;;13.95;3.45;;;;;;;;;;5056758;28;20442;-58
2024/04/05 01:42:52;;;;;;;15.40;3.53;;;;;;;;;;5056764;28;20396;-55
2024/04/05 01:45:19;;;;;;;15.82;3.47;;;;;;;;;;5056682;28;20035;-57
2024/04/05 01:47:45;;;;;;;14.77;3.50;;;;;;;;;;5056651;28;20133;-55
2024/04/05 01:50:13;;;;;;;13.40;3.97;;;;;;;;;;5056654;28;20033;-55
2024/04/05 01:52:40;;;;;;;17.67;4.03;;;;;;;;;;5056500;28;20029;-56
2024/04/05 01:55:07;;;;;;;18.42;3.38;;;;;;;;;;5056520;28;20021;-55
2024/04/05 01:57:37;;;;;;;14.10;4.07;;;;;;;;;;5056500;28;20024;-55
2024/04/05 02:00:03;;;;;;;19.40;4.57;;;;;;;;;;5056429;28;20472;-57
2024/04/05 02:02:30;;;;;;;15.23;3.72;;;;;;;;;;5056624;28;20040;-57
2024/04/05 02:04:56;;;;;;;16.30;3.90;;;;;;;;;;5056411;28;20025;-54
2024/04/05 02:07:23;;;;;;;15.23;3.72;;;;;;;;;;5056540;28;20020;-56
2024/04/05 02:09:50;;;;;;;15.02;3.70;;;;;;;;;;5056207;28;20025;-54
2024/04/05 02:12:18;;;;;;;20.75;4.00;;;;;;;;;;5056160;28;20060;-55
2024/04/05 02:14:45;;;;;;;20.08;3.80;;;;;;;;;;5057250;28;20343;-54
2024/04/05 02:17:10;;;;;;;13.05;3.28;;;;;;;;;;5056182;28;20021;-56
2024/04/05 02:19:35;;;;;;;14.13;3.58;;;;;;;;;;5055640;28;20097;-57
2024/04/05 02:22:02;;;;;;;16.20;3.70;;;;;;;;;;5056075;28;20163;-57
2024/04/05 02:24:28;;;;;;;15.55;4.15;;;;;;;;;;5056064;28;20025;-56
2024/04/05 02:26:55;;;;;;;12.65;3.30;;;;;;;;;;5055928;28;20095;-53
2024/04/05 02:29:21;;;;;;;20.05;4.30;;;;;;;;;;5055920;28;20339;-57
2024/04/05 02:31:47;;;;;;;15.48;3.90;;;;;;;;;;5055794;28;20104;-55
2024/04/05 02:34:14;;;;;;;18.42;4.93;;;;;;;;;;5055815;28;20453;-55
2024/04/05 02:36:40;;;;;;;17.67;3.90;;;;;;;;;;5055735;28;20079;-54
2024/04/05 02:39:07;;;;;;;16.38;3.58;;;;;;;;;;5055957;28;20021;-56
2024/04/05 02:41:33;;;;;;;16.65;3.72;;;;;;;;;;5055902;28;20017;-58
2024/04/05 02:44:00;;;;;;;17.60;4.35;;;;;;;;;;5055653;28;20052;-55
2024/04/05 02:46:27;;;;;;;19.17;4.10;;;;;;;;;;5055463;28;20029;-57
2024/04/05 02:48:54;;;;;;;19.50;4.20;;;;;;;;;;5055801;28;20055;-56
2024/04/05 02:51:21;;;;;;;18.27;3.38;;;;;;;;;;5055452;28;20439;-57
2024/04/05 02:53:47;;;;;;;15.10;3.55;;;;;;;;;;5055427;28;20135;-58
2024/04/05 02:56:16;;;;;;;15.63;3.38;;;;;;;;;;5055368;28;20013;-58
2024/04/05 02:58:43;;;;;;;16.15;4.68;;;;;;;;;;5055599;28;20013;-57
2024/04/05 03:01:09;;;;;;;19.15;3.45;;;;;;;;;;5069329;22;22348;-86
2024/04/05 03:03:35;;;;;;;14.43;3.85;;;;;;;;;;5038243;28;20094;-86
2024/04/05 03:06:00;;;;;;;15.98;3.63;;;;;;;;;;5038375;28;20025;-85
2024/04/05 03:08:25;;;;;;;14.05;3.75;;;;;;;;;;5056098;28;20017;-85
2024/04/05 03:10:50;;;;;;;13.32;3.42;;;;;;;;;;5055470;28;20025;-86
2024/04/05 03:13:15;;;;;;;19.38;4.05;;;;;;;;;;5055758;28;20017;-85
2024/04/05 03:15:41;;;;;;;21.23;4.28;;;;;;;;;;5055723;28;20017;-85
2024/04/05 03:18:06;;;;;;;15.95;4.25;;;;;;;;;;5055691;28;20108;-85
2024/04/05 03:20:31;;;;;;;15.23;3.90;;;;;;;;;;5038593;28;20028;-85
2024/04/05 03:22:56;;;;;;;23.45;4.75;;;;;;;;;;5038377;28;20450;-86
2024/04/05 03:25:22;;;;;;;16.05;3.33;;;;;;;;;;5038126;28;20128;-85
2024/04/05 03:27:47;;;;;;;15.88;3.58;;;;;;;;;;5055702;28;20075;-85
2024/04/05 03:30:13;;;;;;;17.83;3.83;;;;;;;;;;5037797;28;20147;-85
2024/04/05 03:32:38;;;;;;;20.75;4.10;;;;;;;;;;5055398;28;20430;-85
2024/04/05 03:35:05;;;;;;;20.08;4.10;;;;;;;;;;5055980;28;20430;-85
2024/04/05 03:37:32;;;;;;;19.15;4.00;;;;;;;;;;5038341;28;20025;-85
2024/04/05 03:39:58;;;;;;;21.85;4.32;;;;;;;;;;5055771;28;20100;-85
2024/04/05 03:42:23;;;;;;;19.38;3.95;;;;;;;;;;5038198;28;20434;-85
2024/04/05 03:44:50;;;;;;;19.17;4.85;;;;;;;;;;5038049;28;20078;-85
2024/04/05 03:47:15;;;;;;;18.52;4.40;;;;;;;;;;5037613;28;20028;-85
2024/04/05 03:49:41;;;;;;;15.65;3.55;;;;;;;;;;5055820;28;20021;-85
2024/04/05 03:52:06;;;;;;;18.42;4.80;;;;;;;;;;5037626;28;20024;-85
2024/04/05 03:54:32;;;;;;;18.15;3.97;;;;;;;;;;5055427;28;20370;-86
2024/04/05 03:56:57;;;;;;;15.02;3.50;;;;;;;;;;5037748;28;20017;-86
2024/04/05 03:59:22;;;;;;;19.13;4.90;;;;;;;;;;5037557;28;20025;-85
2024/04/05 04:01:52;;;;;;;18.88;4.32;;;;;;;;;;5040508;22;20061;-57
2024/04/05 04:04:19;;;;;;;19.15;4.70;;;;;;;;;;5015842;28;20542;-55
2024/04/05 04:06:44;;;;;;;18.55;4.00;;;;;;;;;;5014903;28;20097;-57
2024/04/05 04:09:11;;;;;;;20.58;4.55;;;;;;;;;;5014260;28;20054;-57
2024/04/05 04:11:37;;;;;;;15.40;3.85;;;;;;;;;;5015248;28;20084;-57
2024/04/05 04:14:04;;;;;;;16.92;4.03;;;;;;;;;;5015074;28;20080;-55
2024/04/05 04:16:30;;;;;;;19.25;4.30;;;;;;;;;;5015295;28;20076;-56
2024/04/05 04:18:56;;;;;;;18.20;4.28;;;;;;;;;;5015579;28;20053;-57
2024/04/05 04:21:24;;;;;;;19.30;4.05;;;;;;;;;;5015011;28;20068;-58
2024/04/05 04:23:53;;;;;;;17.33;3.60;;;;;;;;;;5014971;28;20025;-54
2024/04/05 04:26:20;;;;;;;19.45;4.43;;;;;;;;;;5014933;28;20026;-55
2024/04/05 04:28:45;;;;;;;18.00;3.90;;;;;;;;;;5015200;28;20451;-55
2024/04/05 04:31:21;;;;;;;18.38;3.75;;;;;;;;;;5014855;28;20109;-56
2024/04/05 04:33:51;;;;;;;15.13;3.58;;;;;;;;;;5015048;28;20358;-57
2024/04/05 04:36:22;;;;;;;18.33;4.00;;;;;;;;;;5014742;28;20028;-56
2024/04/05 04:38:48;;;;;;;17.25;4.13;;;;;;;;;;5015051;28;20049;-57
2024/04/05 04:41:15;;;;;;;18.73;4.80;;;;;;;;;;5014744;28;20022;-57
2024/04/05 04:43:42;;;;;;;15.73;4.22;;;;;;;;;;5018392;28;20028;-54
2024/04/05 04:46:12;;;;;;;15.10;3.80;;;;;;;;;;5018787;28;20391;-57
2024/04/05 04:48:41;;;;;;;16.15;3.65;;;;;;;;;;5018861;28;20040;-57
2024/04/05 04:51:10;;;;;;;16.73;3.45;;;;;;;;;;5018395;28;20025;-57
2024/04/05 04:53:37;;;;;;;16.95;3.70;;;;;;;;;;5018537;28;20033;-56
2024/04/05 04:56:03;;;;;;;17.80;4.22;;;;;;;;;;5019017;28;20067;-57
2024/04/05 04:58:33;;;;;;;13.07;3.97;;;;;;;;;;5018383;28;20049;-55
2024/04/05 05:00:58;;;;;;;15.90;3.70;;;;;;;;;;5018527;28;20017;-58
2024/04/05 05:03:25;;;;;;;18.73;4.43;;;;;;;;;;5018302;28;20124;-54
2024/04/05 05:05:51;;;;;;;16.83;3.38;;;;;;;;;;5018982;28;20022;-54
2024/04/05 05:08:18;;;;;;;17.25;3.67;;;;;;;;;;5018278;28;20026;-56
2024/04/05 05:10:44;;;;;;;15.32;3.88;;;;;;;;;;5018374;28;20475;-56
2024/04/05 05:13:10;;;;;;;18.75;4.13;;;;;;;;;;5018102;28;20401;-57
2024/04/05 05:15:40;;;;;;;18.45;3.65;;;;;;;;;;5018150;28;20048;-58
2024/04/05 05:18:07;;;;;;;22.02;4.22;;;;;;;;;;5018702;28;20026;-58
2024/04/05 05:20:33;;;;;;;15.15;3.97;;;;;;;;;;5017975;28;20028;-57
2024/04/05 05:22:59;;;;;;;17.67;3.47;;;;;;;;;;5033801;28;20034;-58
2024/04/05 05:25:26;;;;;;;19.50;4.10;;;;;;;;;;5017910;28;20029;-57
2024/04/05 05:27:52;;;;;;;19.60;4.18;;;;;;;;;;5017831;28;20362;-57
2024/04/05 05:30:19;;;;;;;18.00;4.22;;;;;;;;;;5017881;28;20501;-57
2024/04/05 05:32:44;;;;;;;17.77;3.70;;;;;;;;;;5018007;28;20025;-58
2024/04/05 05:35:10;;;;;;;14.68;3.40;;;;;;;;;;5017710;28;20356;-56
2024/04/05 05:37:37;;;;;;;18.15;4.55;;;;;;;;;;5017665;28;20026;-58
2024/04/05 05:40:04;;;;;;;15.50;3.92;;;;;;;;;;5017598;28;20097;-56
2024/04/05 05:42:31;;;;;;;18.20;3.80;;;;;;;;;;5017844;28;20041;-54
2024/04/05 05:44:57;;;;;;;15.75;4.20;;;;;;;;;;5017543;28;20029;-56
2024/04/05 05:47:23;;;;;;;16.75;3.92;;;;;;;;;;5017458;28;20026;-57
2024/04/05 05:49:52;;;;;;;16.45;3.53;;;;;;;;;;5016473;28;20415;-58
2024/04/05 05:52:18;;;;;;;19.27;4.22;;;;;;;;;;5017300;28;20052;-58
2024/04/05 05:54:43;;;;;;;17.05;4.05;;;;;;;;;;5016567;28;20402;-58
2024/04/05 05:57:10;;;;;;;15.27;3.63;;;;;;;;;;5017293;28;20021;-57
2024/04/05 05:59:36;;;;;;;13.23;3.58;;;;;;;;;;5017251;28;20026;-58
2024/04/05 06:02:02;;;;;;;21.30;4.53;;;;;;;;;;5017122;28;20049;-58
2024/04/05 06:04:28;;;;;;;21.02;3.85;;;;;;;;;;5017565;28;20068;-55
2024/04/05 06:06:55;;;;;;;16.42;4.38;;;;;;;;;;5017148;28;20435;-55
2024/04/05 06:09:22;;;;;;;19.58;4.10;;;;;;;;;;5017325;28;20022;-57
2024/04/05 06:11:49;;;;;;;13.70;3.53;;;;;;;;;;5017096;28;20374;-57
2024/04/05 06:14:16;;;;;;;14.15;3.42;;;;;;;;;;5016980;28;20355;-58
2024/04/05 06:16:44;;;;;;;14.38;3.50;;;;;;;;;;5016849;28;20018;-55
2024/04/05 06:19:11;;;;;;;18.58;3.65;;;;;;;;;;5017137;28;20037;-55
2024/04/05 06:21:36;;;;;;;13.73;3.30;;;;;;;;;;5016757;28;20378;-56
2024/04/05 06:24:01;;;;;;;15.52;3.55;;;;;;;;;;5016711;28;20030;-57
2024/04/05 06:26:26;;;;;;;16.73;3.58;;;;;;;;;;5016613;28;20025;-56
2024/04/05 06:28:52;;;;;;;17.73;3.45;;;;;;;;;;5016743;28;20427;-59
2024/04/05 06:31:17;;;;;;;17.75;3.50;;;;;;;;;;5016595;28;20026;-59
2024/04/05 06:33:44;;;;;;;16.73;3.33;;;;;;;;;;5016669;28;20425;-58
2024/04/05 06:36:09;;;;;;;13.73;3.25;;;;;;;;;;5016606;28;20018;-59
2024/04/05 06:38:34;;;;;;;14.23;3.10;;;;;;;;;;5016592;28;20091;-59
2024/04/05 06:41:00;;;;;;;13.88;3.38;;;;;;;;;;5015599;28;20036;-59
2024/04/05 06:43:28;;;;;;;15.20;3.35;;;;;;;;;;5016816;28;20045;-57
2024/04/05 06:45:54;;;;;;;12.05;3.42;;;;;;;;;;5016498;28;20440;-59
2024/04/05 06:48:20;;;;;;;15.77;3.00;;;;;;;;;;5015679;28;20050;-59
2024/04/05 06:50:49;;;;;;;17.60;3.45;;;;;;;;;;5016396;28;20026;-55
2024/04/05 06:53:15;;;;;;;15.82;3.08;;;;;;;;;;5015353;28;20022;-55
2024/04/05 06:55:48;;;;;;;15.82;2.97;;;;;;;;;;5016096;28;20348;-56
2024/04/05 06:58:14;;;;;;;14.05;3.15;;;;;;;;;;5015490;28;20041;-54
2024/04/05 07:00:40;;;;;;;10.77;2.95;;;;;;;;;;5015306;28;20074;-56
2024/04/05 07:03:06;;;;;;;15.27;3.08;;;;;;;;;;5015562;28;20112;-59
2024/04/05 07:05:31;;;;;;;18.33;3.53;;;;;;;;;;5016060;28;20096;-58
2024/04/05 07:07:58;;;;;;;12.85;2.58;;;;;;;;;;5015790;28;20108;-54
2024/04/05 07:10:25;;;;;;;14.98;3.38;;;;;;;;;;5015771;28;20048;-56
2024/04/05 07:12:51;;;;;;;13.93;3.50;;;;;;;;;;5016355;28;20025;-56
2024/04/05 07:15:18;;;;;;;13.30;3.17;;;;;;;;;;5016159;28;20029;-55
2024/04/05 07:17:48;;;;;;;12.85;2.90;;;;;;;;;;5015547;28;20027;-55
2024/04/05 07:20:15;;;;;;;15.98;3.28;;;;;;;;;;5015858;28;20028;-55
2024/04/05 07:22:42;;;;;;;12.68;3.42;;;;;;;;;;5015690;28;20101;-55
2024/04/05 07:25:09;;;;;;;15.48;3.22;;;;;;;;;;5015424;28;20076;-57
2024/04/05 07:27:35;;;;;;;16.52;3.40;;;;;;;;;;5015271;28;20324;-56
2024/04/05 07:30:00;;;;;;;12.80;2.72;;;;;;;;;;5015513;28;20040;-56
2024/04/05 07:32:27;;;;;;;12.85;2.30;;;;;;;;;;5015534;28;20346;-54
2024/04/05 07:34:52;;;;;;;11.40;2.72;;;;;;;;;;5015789;28;20402;-54
2024/04/05 07:37:17;;;;;;;11.18;2.67;;;;;;;;;;5015208;28;20038;-57
2024/04/05 07:39:44;;;;;;;14.13;2.58;;;;;;;;;;5015457;28;20029;-56
2024/04/05 07:42:09;;;;;;;12.45;3.05;;;;;;;;;;5015625;28;20038;-54
2024/04/05 07:44:34;;;;;;;11.90;2.58;;;;;;;;;;5016031;28;20332;-54
2024/04/05 07:47:00;;;;;;;12.98;2.85;;;;;;;;;;5015433;28;20022;-56
2024/04/05 07:49:26;;;;;;;12.63;2.60;;;;;;;;;;5015236;28;20037;-56
2024/04/05 07:51:51;;;;;;;14.10;2.90;;;;;;;;;;5014857;28;20022;-55
2024/04/05 07:54:16;;;;;;;13.60;3.20;;;;;;;;;;5015194;28;20022;-58
2024/04/05 07:56:41;;;;;;;13.52;3.05;;;;;;;;;;5015061;28;20045;-56
2024/04/05 07:59:08;;;;;;;13.50;3.40;;;;;;;;;;5014052;28;20026;-55
2024/04/05 08:01:33;;;;;;;11.02;2.88;;;;;;;;;;5015130;28;20022;-58
2024/04/05 08:04:00;;;;;;;16.90;3.03;;;;;;;;;;5014979;28;20410;-57
2024/04/05 08:06:25;;;;;;;11.82;2.88;;;;;;;;;;5014917;28;20030;-56
2024/04/05 08:08:50;;;;;;;12.57;3.00;;;;;;;;;;5015345;28;20041;-55
2024/04/05 08:11:17;;;;;;;15.00;2.70;;;;;;;;;;5015048;28;20436;-54
2024/04/05 08:13:43;;;;;;;12.27;2.95;;;;;;;;;;5015120;28;20026;-55
2024/04/05 08:16:10;;;;;;;12.70;2.80;;;;;;;;;;5014292;28;20053;-56
2024/04/05 08:18:36;;;;;;;11.48;2.45;;;;;;;;;;5021168;28;20076;-54
2024/04/05 08:21:05;;;;;;;13.93;2.60;;;;;;;;;;5020640;28;20017;-54
2024/04/05 08:23:30;;;;;;;11.02;3.00;;;;;;;;;;5021449;28;20033;-54
2024/04/05 08:25:55;;;;;;;12.75;3.08;;;;;;;;;;5021406;28;20022;-58
2024/04/05 08:28:20;;;;;;;9.40;2.80;;;;;;;;;;5021251;28;20026;-56
2024/04/05 08:30:45;;;;;;;12.48;2.67;;;;;;;;;;5021686;28;20022;-58
2024/04/05 08:33:11;;;;;;;13.63;2.90;;;;;;;;;;5021686;28;20068;-56
2024/04/05 08:35:36;;;;;;;12.27;2.65;;;;;;;;;;5021334;28;20363;-57
2024/04/05 08:38:02;;;;;;;10.27;2.47;;;;;;;;;;5021375;28;20014;-54
2024/04/05 08:40:28;;;;;;;12.15;3.33;;;;;;;;;;5021283;28;20013;-55
2024/04/05 08:42:53;;;;;;;11.23;2.70;;;;;;;;;;5021310;28;20032;-57
2024/04/05 08:45:18;;;;;;;11.98;2.83;;;;;;;;;;5021408;28;20025;-55
2024/04/05 08:47:45;;;;;;;8.85;2.47;;;;;;;;;;5022116;28;20026;-57
2024/04/05 08:50:14;;;;;;;13.02;3.05;;;;;;;;;;5021270;28;20079;-58
2024/04/05 08:52:39;;;;;;;13.65;2.67;;;;;;;;;;5021463;28;20021;-55
2024/04/05 08:55:06;;;;;;;10.65;2.45;;;;;;;;;;5021081;28;20014;-54
2024/04/05 08:57:34;;;;;;;12.68;3.20;;;;;;;;;;5021294;28;20029;-55
2024/04/05 08:59:59;;;;;;;13.00;2.75;;;;;;;;;;5021250;28;20061;-55
2024/04/05 09:02:26;;;;;;;10.93;2.78;;;;;;;;;;5021485;28;20037;-55
2024/04/05 09:04:51;;;;;;;10.85;2.72;;;;;;;;;;5020919;28;20030;-56
2024/04/05 09:07:17;;;;;;;9.02;2.53;;;;;;;;;;5021184;28;20418;-54
2024/04/05 09:09:46;;;;;;;10.93;2.78;;;;;;;;;;5018728;28;20115;-54
2024/04/05 09:12:14;;;;;;;9.32;2.10;;;;;;;;;;5021111;28;20370;-55
2024/04/05 09:14:39;;;;;;;12.00;2.60;;;;;;;;;;5021037;28;20402;-58
2024/04/05 09:17:14;;;;;;;12.18;3.42;;;;;;;;;;5020173;28;20039;-56
2024/04/05 09:19:39;;;;;;;9.52;2.13;;;;;;;;;;5020946;28;20021;-58
2024/04/05 09:22:05;;;;;;;11.10;2.35;;;;;;;;;;5021029;28;20435;-56
2024/04/05 09:24:30;;;;;;;11.63;3.00;;;;;;;;;;5021185;28;20026;-56
2024/04/05 09:26:58;;;;;;;7.75;2.05;;;;;;;;;;5020684;28;20037;-58
2024/04/05 09:29:24;;;;;;;14.20;2.70;;;;;;;;;;5017514;28;20392;-58
2024/04/05 09:31:49;;;;;;;11.23;2.63;;;;;;;;;;5017894;28;20072;-56
2024/04/05 09:34:14;;;;;;;8.63;2.47;;;;;;;;;;5017802;28;20050;-56
2024/04/05 09:36:40;;;;;;;14.25;2.80;;;;;;;;;;5017604;28;20157;-58
2024/04/05 09:39:08;;;;;;;7.68;2.13;;;;;;;;;;5017791;28;20022;-56
2024/04/05 09:41:34;;;;;;;11.60;2.60;;;;;;;;;;5017619;28;20065;-56
2024/04/05 09:44:04;;;;;;;8.38;2.38;;;;;;;;;;5017923;28;20526;-58
2024/04/05 09:46:29;;;;;;;10.25;2.40;;;;;;;;;;5017704;28;20030;-54
2024/04/05 09:48:55;;;;;;;8.82;2.35;;;;;;;;;;5017257;28;20361;-54
2024/04/05 09:51:24;;;;;;;9.93;2.55;;;;;;;;;;5017418;28;20168;-56
2024/04/05 09:53:51;;;;;;;8.13;2.10;;;;;;;;;;5017700;28;20022;-54
2024/04/05 09:56:18;;;;;;;9.23;2.47;;;;;;;;;;5017707;28;20041;-56
2024/04/05 09:58:44;;;;;;;10.10;2.60;;;;;;;;;;5017188;28;20328;-54
2024/04/05 10:01:09;;;;;;;12.88;2.90;;;;;;;;;;5017319;28;20034;-56
2024/04/05 10:03:35;;;;;;;11.38;2.85;;;;;;;;;;5017159;28;20088;-57
2024/04/05 10:06:26;;;;;;;8.50;2.45;;;;;;;;;;5017287;28;20022;-57
2024/04/05 10:08:51;;;;;;;10.82;2.72;;;;;;;;;;5015649;28;20044;-54
2024/04/05 10:11:17;;;;;;;10.48;2.92;;;;;;;;;;5016130;28;20030;-57
2024/04/05 10:13:42;;;;;;;8.73;2.33;;;;;;;;;;5016434;28;20036;-55
2024/04/05 10:16:12;;;;;;;12.40;3.08;;;;;;;;;;5016744;28;20076;-56
2024/04/05 10:18:38;;;;;;;10.68;2.72;;;;;;;;;;5017229;28;20018;-54
2024/04/05 10:21:04;;;;;;;11.63;2.95;;;;;;;;;;5017007;28;20093;-56
2024/04/05 10:23:30;;;;;;;11.27;2.70;;;;;;;;;;5016788;28;20316;-57
2024/04/05 10:25:56;;;;;;;10.98;2.40;;;;;;;;;;5016669;28;20018;-55
2024/04/05 10:28:21;;;;;;;9.68;2.33;;;;;;;;;;5017041;28;20097;-58
2024/04/05 10:30:47;;;;;;;10.88;2.40;;;;;;;;;;5016769;28;20014;-55
2024/04/05 10:33:21;;;;;;;11.48;2.60;;;;;;;;;;5016619;28;20026;-54
2024/04/05 10:35:48;;;;;;;12.63;2.83;;;;;;;;;;5016752;28;20037;-54
2024/04/05 10:38:13;;;;;;;10.15;2.58;;;;;;;;;;5016430;28;20450;-58
2024/04/05 10:40:38;;;;;;;12.25;2.50;;;;;;;;;;5016328;28;20026;-58
2024/04/05 10:43:10;;;;;;;12.48;2.33;;;;;;;;;;5017124;28;20379;-58
2024/04/05 10:45:35;;;;;;;11.73;2.65;;;;;;;;;;5016522;28;20041;-59
2024/04/05 10:48:01;;;;;;;10.50;2.40;;;;;;;;;;5015479;28;20033;-58
2024/04/05 10:50:26;;;;;;;10.43;2.58;;;;;;;;;;5015819;28;20037;-57
2024/04/05 10:52:52;;;;;;;10.10;2.55;;;;;;;;;;5016018;28;20041;-58
2024/04/05 10:55:17;;;;;;;11.48;2.40;;;;;;;;;;5016317;28;20018;-58
2024/04/05 10:57:43;;;;;;;12.60;2.72;;;;;;;;;;5016096;28;20033;-58
2024/04/05 11:00:11;;;;;;;9.95;2.63;;;;;;;;;;5016457;28;20087;-56
2024/04/05 11:02:38;;;;;;;9.40;2.30;;;;;;;;;;5016065;28;20037;-58
2024/04/05 11:05:12;;;;;;;7.20;2.40;;;;;;;;;;5016016;28;20489;-55
2024/04/05 11:07:39;;;;;;;9.20;2.30;;;;;;;;;;5015570;28;20111;-58
2024/04/05 11:10:13;;;;;;;8.93;2.58;;;;;;;;;;5015696;28;20036;-58
2024/04/05 11:12:38;;;;;;;8.55;2.40;;;;;;;;;;5015992;28;20025;-58
2024/04/05 11:15:04;;;;;;;8.43;2.60;;;;;;;;;;5015950;28;20014;-58
2024/04/05 11:17:30;;;;;;;8.18;2.45;;;;;;;;;;5016154;28;20061;-58
2024/04/05 11:20:09;;;;;;;8.85;2.70;;;;;;;;;;5015555;28;20057;-58
2024/04/05 11:22:34;;;;;;;8.45;2.20;;;;;;;;;;5016130;28;20021;-57
2024/04/05 11:24:59;;;;;;;9.20;2.47;;;;;;;;;;5015921;28;20351;-57
2024/04/05 11:27:26;;;;;;;12.90;2.38;;;;;;;;;;5015769;28;20034;-58
2024/04/05 11:29:51;;;;;;;7.18;1.88;;;;;;;;;;5014877;28;20034;-58
2024/04/05 11:32:32;;;;;;;8.55;2.70;;;;;;;;;;5015635;28;20032;-58
2024/04/05 11:35:01;;;;;;;12.05;2.88;;;;;;;;;;5015703;28;20057;-57
2024/04/05 11:37:28;;;;;;;9.73;2.65;;;;;;;;;;5015584;28;20033;-57
2024/04/05 11:39:53;;;;;;;10.00;2.40;;;;;;;;;;5015350;28;20080;-57
2024/04/05 11:42:18;;;;;;;11.68;2.38;;;;;;;;;;5015169;28;20459;-56
2024/04/05 11:44:43;;;;;;;10.88;2.72;;;;;;;;;;5015505;28;20481;-55
2024/04/05 11:47:09;;;;;;;6.88;2.72;;;;;;;;;;5015432;28;20021;-58
2024/04/05 11:49:34;;;;;;;9.48;2.63;;;;;;;;;;5014227;28;20093;-59
2024/04/05 11:51:59;;;;;;;8.82;3.15;;;;;;;;;;5014587;28;20470;-57
2024/04/05 11:54:24;;;;;;;9.60;2.50;;;;;;;;;;5015037;28;20018;-58
2024/04/05 11:56:50;;;;;;;9.57;2.72;;;;;;;;;;5015274;28;20034;-58
2024/04/05 11:59:15;;;;;;;8.68;2.90;;;;;;;;;;5014974;28;20017;-60
2024/04/05 12:01:40;;;;;;;10.05;2.53;;;;;;;;;;5015302;28;20033;-58
2024/04/05 12:04:07;;;;;;;7.57;2.03;;;;;;;;;;5015253;28;20109;-58
2024/04/05 12:06:32;;;;;;;12.85;2.65;;;;;;;;;;5014232;28;20040;-57
2024/04/05 12:08:57;;;;;;;7.57;2.38;;;;;;;;;;5014951;28;20125;-58
2024/04/05 12:11:22;;;;;;;10.50;2.67;;;;;;;;;;5014824;28;20113;-57
2024/04/05 12:13:49;;;;;;;9.60;2.10;;;;;;;;;;5015068;28;20415;-58
2024/04/05 12:16:14;;;;;;;8.90;2.30;;;;;;;;;;5015315;28;20018;-58
2024/04/05 12:18:39;;;;;;;6.82;2.20;;;;;;;;;;5014827;28;20029;-58
2024/04/05 12:21:04;;;;;;;5.32;1.67;;;;;;;;;;5015085;28;20418;-58
2024/04/05 12:23:30;;;;;;;4.07;1.52;;;;;;;;;;5015038;28;20351;-55
2024/04/05 12:25:58;;;;;;;5.93;1.63;;;;;;;;;;5015229;28;20083;-59
2024/04/05 12:28:23;;;;;;;4.80;1.52;;;;;;;;;;5015056;28;20434;-58
2024/04/05 12:30:48;;;;;;;7.88;2.15;;;;;;;;;;5014564;28;20056;-57
2024/04/05 12:33:14;;;;;;;11.18;1.92;;;;;;;;;;5014830;28;20081;-58
2024/04/05 12:35:39;;;;;;;6.50;2.00;;;;;;;;;;5015037;28;20033;-58
2024/04/05 12:38:06;;;;;;;6.32;1.60;;;;;;;;;;5014944;28;20018;-58
2024/04/05 12:40:45;;;;;;;7.47;1.77;;;;;;;;;;5014685;28;20416;-57
2024/04/05 12:43:11;;;;;;;4.65;1.95;;;;;;;;;;5015144;28;20037;-58
2024/04/05 12:45:36;;;;;;;3.75;1.10;;;;;;;;;;5014863;28;20355;-58
2024/04/05 12:48:02;;;;;;;5.35;1.67;;;;;;;;;;5014794;28;20037;-56
2024/04/05 12:50:28;;;;;;;6.90;1.50;;;;;;;;;;5014522;28;20025;-58
2024/04/05 12:52:53;;;;;;;4.88;1.45;;;;;;;;;;5014734;28;20358;-58
2024/04/05 12:55:18;;;;;;;6.10;1.45;;;;;;;;;;5014400;28;20041;-58
2024/04/05 12:57:43;;;;;;;4.45;1.45;;;;;;;;;;5013748;28;20410;-58
2024/04/05 13:00:14;;;;;;;5.38;1.70;;;;;;;;;;5014914;28;20362;-57
2024/04/05 13:02:39;;;;;;;5.95;1.40;;;;;;;;;;5013894;28;20514;-57
2024/04/05 13:05:05;;;;;;;6.03;1.30;;;;;;;;;;5018332;28;20129;-57
2024/04/05 13:07:31;;;;;;;6.50;1.50;;;;;;;;;;5018353;28;20113;-57
2024/04/05 13:09:56;;;;;;;7.15;1.40;;;;;;;;;;5017990;28;20497;-57
2024/04/05 13:12:21;;;;;;;6.30;1.20;;;;;;;;;;5018186;28;20022;-58
2024/04/05 13:14:46;;;;;;;4.18;1.30;;;;;;;;;;5018185;28;20014;-58
2024/04/05 13:17:12;;;;;;;5.22;1.40;;;;;;;;;;5017896;28;20087;-57
2024/04/05 13:19:37;;;;;;;4.25;1.42;;;;;;;;;;5018102;28;20029;-57
2024/04/05 13:22:02;;;;;;;8.30;2.08;;;;;;;;;;5018071;28;20029;-57
2024/04/05 13:24:28;;;;;;;4.53;1.30;;;;;;;;;;5018039;28;20045;-57
2024/04/05 13:26:53;;;;;;;4.82;1.17;;;;;;;;;;5017768;28;20026;-57
2024/04/05 13:29:18;;;;;;;5.45;1.40;;;;;;;;;;5017585;28;20411;-57
2024/04/05 13:31:44;;;;;;;5.30;1.40;;;;;;;;;;5017516;28;20363;-57
2024/04/05 13:34:09;;;;;;;5.25;1.13;;;;;;;;;;5017849;28;20398;-58
2024/04/05 13:36:35;;;;;;;6.85;1.83;;;;;;;;;;5017240;28;20045;-58
2024/04/05 13:39:00;;;;;;;6.53;1.20;;;;;;;;;;5018082;28;20025;-58
2024/04/05 13:41:25;;;;;;;2.58;1.08;;;;;;;;;;5017699;28;20431;-57
2024/04/05 13:43:50;;;;;;;4.45;1.42;;;;;;;;;;5017524;28;20022;-57
2024/04/05 13:46:16;;;;;;;8.30;1.33;;;;;;;;;;5017633;28;20344;-58
2024/04/05 13:48:51;;;;;;;4.72;1.27;;;;;;;;;;5018111;28;20025;-57
2024/04/05 13:51:17;;;;;;;6.10;1.70;;;;;;;;;;5017419;28;20022;-57
2024/04/05 13:53:42;;;;;;;8.38;1.80;;;;;;;;;;5017238;28;20498;-58
2024/04/05 13:56:09;;;;;;;6.35;1.63;;;;;;;;;;5017225;28;20030;-56
2024/04/05 13:58:34;;;;;;;7.30;1.30;;;;;;;;;;5017288;28;20026;-58
2024/04/05 14:01:00;;;;;;;5.93;1.40;;;;;;;;;;5017344;28;20037;-56
2024/04/05 14:03:25;;;;;;;5.07;1.33;;;;;;;;;;5016944;28;20499;-58
2024/04/05 14:05:51;;;;;;;6.55;1.27;;;;;;;;;;5017217;28;20036;-58
2024/04/05 14:08:18;;;;;;;4.93;1.70;;;;;;;;;;5017283;28;20014;-58
2024/04/05 14:10:44;;;;;;;6.43;1.75;;;;;;;;;;5017365;28;20026;-57
2024/04/05 14:13:09;;;;;;;4.20;1.40;;;;;;;;;;5017101;28;20056;-58
2024/04/05 14:15:35;;;;;;;4.90;1.27;;;;;;;;;;5016155;28;20049;-58
2024/04/05 14:18:00;;;;;;;3.97;1.60;;;;;;;;;;5017069;28;20026;-57
2024/04/05 14:20:25;;;;;;;4.40;1.70;;;;;;;;;;5016958;28;20080;-57
2024/04/05 14:22:50;;;;;;;5.13;2.40;;;;;;;;;;5016978;28;20125;-58
2024/04/05 14:25:16;;;;;;;10.82;4.70;;;;;;;;;;5016500;28;20068;-57
2024/04/05 14:27:41;;;;;;;6.30;2.20;;;;;;;;;;5016865;28;20033;-58